createdAt,value
2023-03-30T00:02:10.874Z,65.79
2023-03-30T00:04:43.092Z,65.55
2023-03-30T00:07:13.226Z,65.42
2023-03-30T00:09:43.446Z,65.15
2023-03-30T00:12:13.563Z,65.69
2023-03-30T00:14:42.757Z,65.62
2023-03-30T00:17:11.244Z,65.71
2023-03-30T00:19:39.500Z,65.24
2023-03-30T00:22:09.012Z,65.45
2023-03-30T00:24:38.660Z,65.50
2023-03-30T00:27:06.952Z,64.85
2023-03-30T00:29:35.317Z,65.33
2023-03-30T00:32:03.705Z,65.27
2023-03-30T00:34:31.985Z,64.41
2023-03-30T00:37:00.260Z,64.45
2023-03-30T00:39:28.483Z,64.79
2023-03-30T00:41:58.299Z,65.36
2023-03-30T00:45:07.867Z,65.08
2023-03-30T00:47:39.559Z,64.92
2023-03-30T00:50:09.713Z,64.68
2023-03-30T00:52:38.340Z,65.24
2023-03-30T00:55:09.056Z,64.39
2023-03-30T00:57:41.979Z,64.62
2023-03-30T01:00:11.984Z,64.49
2023-03-30T01:02:45.984Z,64.79
2023-03-30T01:05:14.522Z,64.48
2023-03-30T01:07:46.384Z,64.67
2023-03-30T01:10:14.710Z,64.50
2023-03-30T01:12:45.452Z,64.63
2023-03-30T01:15:16.253Z,64.28
2023-03-30T01:18:00.788Z,64.08
2023-03-30T01:21:03.405Z,64.49
2023-03-30T01:24:06.180Z,64.36
2023-03-30T01:26:54.524Z,64.24
2023-03-30T01:29:38.600Z,64.51
2023-03-30T01:32:57.604Z,64.24
2023-03-30T01:35:58.865Z,64.23
2023-03-30T01:39:01.919Z,64.14
2023-03-30T01:41:35.075Z,64.14
2023-03-30T01:44:09.757Z,64.12
2023-03-30T01:46:42.138Z,64.08
2023-03-30T01:49:17.208Z,63.82
2023-03-30T01:51:49.993Z,64.26
2023-03-30T01:54:23.584Z,63.75
2023-03-30T01:56:56.939Z,64.43
2023-03-30T01:59:29.958Z,64.58
2023-03-30T02:02:04.029Z,64.47
2023-03-30T02:04:38.844Z,64.37
2023-03-30T02:07:11.595Z,64.77
2023-03-30T02:09:43.286Z,64.37
2023-03-30T02:12:12.914Z,64.30
2023-03-30T02:14:42.922Z,64.92
2023-03-30T02:17:17.167Z,64.18
2023-03-30T02:19:46.243Z,64.51
2023-03-30T02:22:16.224Z,64.01
2023-03-30T02:24:48.095Z,63.91
2023-03-30T02:27:19.336Z,63.97
2023-03-30T02:29:49.772Z,63.33
2023-03-30T02:32:21.037Z,62.68
2023-03-30T02:35:03.105Z,63.02
2023-03-30T02:37:47.770Z,63.92
2023-03-30T02:40:33.089Z,63.95
2023-03-30T02:43:23.654Z,64.17
2023-03-30T02:45:56.113Z,64.00
2023-03-30T02:48:38.476Z,63.94
2023-03-30T02:51:23.401Z,62.77
2023-03-30T02:54:28.951Z,62.21
2023-03-30T02:57:34.575Z,62.10
2023-03-30T03:00:28.915Z,61.15
2023-03-30T03:03:03.465Z,60.70
2023-03-30T03:05:34.040Z,60.66
2023-03-30T03:08:16.573Z,60.74
2023-03-30T03:10:47.137Z,60.39
2023-03-30T03:13:20.617Z,60.94
2023-03-30T03:15:49.888Z,60.46
2023-03-30T03:18:18.550Z,60.39
2023-03-30T03:20:46.936Z,61.15
2023-03-30T03:23:15.452Z,61.03
2023-03-30T03:25:50.787Z,61.18
2023-03-30T03:28:22.600Z,61.47
2023-03-30T03:30:54.516Z,62.02
2023-03-30T03:33:25.834Z,61.38
2023-03-30T03:36:05.762Z,61.54
2023-03-30T03:38:37.360Z,61.20
2023-03-30T03:41:07.447Z,61.47
2023-03-30T03:43:37.822Z,61.96
2023-03-30T03:46:06.321Z,62.30
2023-03-30T03:48:34.847Z,63.18
2023-03-30T03:51:03.404Z,63.03
2023-03-30T03:53:35.245Z,63.37
2023-03-30T03:56:08.223Z,63.19
2023-03-30T03:58:38.827Z,63.07
2023-03-30T04:01:08.496Z,62.59
2023-03-30T04:03:37.064Z,62.76
2023-03-30T04:06:06.734Z,61.93
2023-03-30T04:08:35.002Z,62.70
2023-03-30T04:11:20.237Z,62.44
2023-03-30T04:14:04.941Z,62.48
2023-03-30T04:16:45.132Z,61.67
2023-03-30T04:19:33.400Z,61.14
2023-03-30T04:22:25.659Z,58.43
2023-03-30T04:25:15.124Z,57.49
2023-03-30T04:28:05.322Z,57.43
2023-03-30T04:31:00.368Z,57.29
2023-03-30T04:33:51.814Z,57.37
2023-03-30T04:36:39.012Z,56.92
2023-03-30T04:39:30.105Z,56.65
2023-03-30T04:42:20.249Z,56.74
2023-03-30T04:45:10.162Z,56.63
2023-03-30T04:47:43.077Z,56.45
2023-03-30T04:50:41.302Z,56.22
2023-03-30T04:53:12.466Z,56.03
2023-03-30T04:55:50.305Z,55.97
2023-03-30T04:58:34.014Z,56.10
2023-03-30T05:01:21.521Z,55.61
2023-03-30T05:04:20.462Z,56.61
2023-03-30T05:06:49.737Z,56.93
2023-03-30T05:09:47.322Z,58.34
2023-03-30T05:12:33.899Z,60.10
2023-03-30T05:15:25.371Z,61.29
2023-03-30T05:18:11.683Z,62.03
2023-03-30T05:21:00.026Z,62.42
2023-03-30T05:23:46.501Z,63.55
2023-03-30T05:26:32.674Z,63.99
2023-03-30T05:29:22.128Z,63.95
2023-03-30T05:32:17.817Z,62.34
2023-03-30T05:35:05.673Z,62.75
2023-03-30T05:37:44.408Z,61.88
2023-03-30T05:40:38.887Z,61.71
2023-03-30T05:43:08.299Z,60.40
2023-03-30T05:45:56.235Z,59.30
2023-03-30T05:48:53.580Z,57.69
2023-03-30T05:51:29.336Z,57.19
2023-03-30T05:54:08.284Z,57.90
2023-03-30T05:56:55.372Z,57.15
2023-03-30T05:59:37.268Z,55.90
2023-03-30T06:02:28.894Z,53.68
2023-03-30T06:05:04.136Z,53.75
2023-03-30T06:07:32.692Z,52.07
2023-03-30T06:10:02.440Z,52.29
2023-03-30T06:12:32.080Z,51.93
2023-03-30T06:15:03.009Z,51.77
2023-03-30T06:17:52.152Z,50.99
2023-03-30T06:20:21.586Z,50.92
2023-03-30T06:22:51.458Z,50.85
2023-03-30T06:25:24.627Z,51.30
2023-03-30T06:27:54.350Z,51.95
2023-03-30T06:30:22.866Z,51.29
2023-03-30T06:32:54.650Z,51.20
2023-03-30T06:35:26.790Z,51.65
2023-03-30T06:37:56.969Z,51.78
2023-03-30T06:40:27.043Z,52.62
2023-03-30T06:42:57.067Z,51.61
2023-03-30T06:45:40.803Z,51.72
2023-03-30T06:48:09.283Z,51.99
2023-03-30T06:50:40.755Z,53.43
2023-03-30T06:53:20.453Z,52.42
2023-03-30T06:55:54.424Z,52.87
2023-03-30T06:58:24.121Z,53.52
2023-03-30T07:00:52.797Z,52.40
2023-03-30T07:03:41.279Z,52.18
2023-03-30T07:06:24.336Z,52.82
2023-03-30T07:08:52.641Z,52.30
2023-03-30T07:11:27.285Z,53.04
2023-03-30T07:13:58.509Z,52.91
2023-03-30T07:16:27.105Z,54.05
2023-03-30T07:18:55.402Z,53.62
2023-03-30T07:21:24.381Z,54.30
2023-03-30T07:23:52.709Z,53.52
2023-03-30T07:26:32.576Z,53.88
2023-03-30T07:29:07.440Z,54.20
2023-03-30T07:31:38.196Z,54.56
2023-03-30T07:34:09.382Z,54.78
2023-03-30T07:36:42.425Z,54.46
2023-03-30T07:39:12.702Z,54.13
2023-03-30T07:41:45.654Z,55.32
2023-03-30T07:44:15.188Z,56.10
2023-03-30T07:46:43.636Z,56.55
2023-03-30T07:49:17.514Z,57.77
2023-03-30T07:51:45.911Z,56.81
2023-03-30T07:54:21.167Z,57.08
2023-03-30T07:57:14.177Z,57.03
2023-03-30T07:59:42.819Z,57.35
2023-03-30T08:02:30.258Z,56.58
2023-03-30T08:05:00.252Z,55.76
2023-03-30T08:07:45.376Z,57.66
2023-03-30T08:10:20.045Z,56.97
2023-03-30T08:12:49.740Z,58.19
2023-03-30T08:15:18.152Z,57.68
2023-03-30T08:17:46.436Z,58.68
2023-03-30T08:20:15.101Z,57.44
2023-03-30T08:22:43.420Z,57.43
2023-03-30T08:25:11.900Z,57.74
2023-03-30T08:27:40.542Z,59.21
2023-03-30T08:30:13.165Z,58.71
2023-03-30T08:32:41.535Z,59.33
2023-03-30T08:35:11.613Z,60.46
2023-03-30T08:37:39.932Z,60.13
2023-03-30T08:40:11.280Z,59.93
2023-03-30T08:42:53.594Z,60.76
2023-03-30T08:45:23.344Z,60.42
2023-03-30T08:47:53.204Z,60.89
2023-03-30T08:50:31.539Z,59.44
2023-03-30T08:53:00.339Z,60.28
2023-03-30T08:55:36.143Z,60.86
2023-03-30T08:58:10.100Z,60.29
2023-03-30T09:00:45.191Z,60.12
2023-03-30T09:03:19.743Z,61.60
2023-03-30T09:05:54.084Z,61.20
2023-03-30T09:08:24.603Z,61.57
2023-03-30T09:10:57.592Z,61.31
2023-03-30T09:13:29.468Z,60.85
2023-03-30T09:16:04.485Z,62.23
2023-03-30T09:18:35.057Z,61.44
2023-03-30T09:21:06.311Z,61.09
2023-03-30T09:23:36.074Z,61.38
2023-03-30T09:26:17.356Z,60.83
2023-03-30T09:28:53.507Z,61.04
2023-03-30T09:31:29.131Z,60.80
2023-03-30T09:34:03.607Z,62.82
2023-03-30T09:36:39.204Z,61.89
2023-03-30T09:39:11.866Z,62.24
2023-03-30T09:41:52.743Z,62.55
2023-03-30T09:44:27.255Z,61.89
2023-03-30T09:47:00.901Z,60.98
2023-03-30T09:49:30.580Z,61.46
2023-03-30T09:52:04.499Z,61.75
2023-03-30T09:54:37.893Z,60.87
2023-03-30T09:57:06.621Z,58.90
2023-03-30T09:59:36.455Z,58.35
2023-03-30T10:02:20.840Z,56.69
2023-03-30T10:04:58.322Z,56.15
2023-03-30T10:07:29.009Z,58.02
2023-03-30T10:10:00.318Z,57.19
2023-03-30T10:12:30.106Z,57.63
2023-03-30T10:15:01.859Z,58.36
2023-03-30T10:17:32.209Z,59.23
2023-03-30T10:20:27.269Z,60.54
2023-03-30T10:22:57.514Z,60.92
2023-03-30T10:25:29.680Z,63.21
2023-03-30T10:28:03.005Z,61.89
2023-03-30T10:30:33.327Z,61.48
2023-03-30T10:33:04.117Z,60.72
2023-03-30T10:35:36.895Z,61.09
2023-03-30T10:38:07.643Z,61.12
2023-03-30T10:40:37.820Z,61.70
2023-03-30T10:43:12.034Z,61.07
2023-03-30T10:45:45.861Z,63.50
2023-03-30T10:48:29.916Z,62.93
2023-03-30T10:51:08.788Z,63.52
2023-03-30T10:53:45.807Z,62.27
2023-03-30T10:56:26.363Z,62.28
2023-03-30T10:59:18.750Z,63.00
2023-03-30T11:01:58.537Z,64.47
2023-03-30T11:04:35.258Z,63.17
2023-03-30T11:07:06.538Z,63.56
2023-03-30T11:09:41.034Z,63.56
2023-03-30T11:12:15.117Z,64.15
2023-03-30T11:14:50.661Z,63.34
2023-03-30T11:17:23.961Z,64.08
2023-03-30T11:19:56.925Z,64.18
2023-03-30T11:22:34.317Z,64.26
2023-03-30T11:25:05.222Z,65.40
2023-03-30T11:27:36.481Z,64.82
2023-03-30T11:30:12.549Z,62.74
2023-03-30T11:32:45.426Z,63.76
2023-03-30T11:35:20.043Z,63.29
2023-03-30T11:37:54.357Z,62.73
2023-03-30T11:40:27.329Z,63.60
2023-03-30T11:42:56.618Z,60.85
2023-03-30T11:45:44.847Z,64.68
2023-03-30T11:48:49.293Z,64.73
2023-03-30T11:51:31.732Z,61.25
2023-03-30T11:54:08.807Z,63.50
2023-03-30T11:56:40.411Z,63.25
2023-03-30T11:59:17.060Z,64.85
2023-03-30T12:02:06.826Z,64.98
2023-03-30T12:04:45.315Z,64.69
2023-03-30T12:07:26.031Z,64.11
2023-03-30T12:09:57.244Z,67.67
2023-03-30T12:12:33.778Z,65.26
2023-03-30T12:15:11.471Z,63.97
2023-03-30T12:17:48.628Z,63.49
2023-03-30T12:20:33.159Z,64.95
2023-03-30T12:23:12.501Z,62.32
2023-03-30T12:25:55.510Z,64.33
2023-03-30T12:28:35.770Z,64.92
2023-03-30T12:31:16.069Z,62.81
2023-03-30T12:33:49.808Z,64.17
2023-03-30T12:36:34.404Z,64.15
2023-03-30T12:39:06.871Z,63.60
2023-03-30T12:41:43.291Z,63.27
2023-03-30T12:44:36.628Z,63.15
2023-03-30T12:47:18.439Z,61.10
2023-03-30T12:49:59.539Z,61.68
2023-03-30T12:52:39.604Z,62.06
2023-03-30T12:55:28.942Z,58.18
2023-03-30T12:58:08.862Z,62.60
2023-03-30T13:00:55.715Z,62.55
2023-03-30T13:03:38.462Z,62.25
2023-03-30T13:06:21.978Z,63.33
2023-03-30T13:08:55.622Z,63.79
2023-03-30T13:11:25.415Z,64.24
2023-03-30T13:13:56.386Z,63.54
2023-03-30T13:17:01.872Z,63.90
2023-03-30T13:19:42.817Z,60.86
2023-03-30T13:22:28.202Z,64.17
2023-03-30T13:24:59.486Z,64.14
2023-03-30T13:27:33.902Z,64.00
2023-03-30T13:30:06.401Z,63.09
2023-03-30T13:32:49.680Z,62.83
2023-03-30T13:35:33.088Z,63.30
2023-03-30T13:38:22.252Z,62.28
2023-03-30T13:41:05.179Z,64.26
2023-03-30T13:43:49.550Z,63.40
2023-03-30T13:46:28.688Z,62.02
2023-03-30T13:49:07.883Z,60.73
2023-03-30T13:51:39.108Z,61.65
2023-03-30T13:54:15.050Z,61.09
2023-03-30T13:56:49.651Z,61.35
2023-03-30T13:59:22.559Z,61.83
2023-03-30T14:01:55.128Z,63.26
2023-03-30T14:04:24.124Z,62.78
2023-03-30T14:06:54.276Z,64.92
2023-03-30T14:09:24.376Z,63.85
2023-03-30T14:11:55.406Z,63.98
2023-03-30T14:14:28.225Z,63.74
2023-03-30T14:16:58.587Z,63.46
2023-03-30T14:19:29.213Z,63.92
2023-03-30T14:22:01.246Z,63.80
2023-03-30T14:24:31.599Z,64.10
2023-03-30T14:27:04.055Z,64.24
2023-03-30T14:29:33.824Z,63.94
2023-03-30T14:32:09.084Z,64.19
2023-03-30T14:34:38.155Z,62.96
2023-03-30T14:37:09.274Z,63.73
2023-03-30T14:39:42.699Z,64.11
2023-03-30T14:42:16.613Z,62.78
2023-03-30T14:44:48.106Z,63.02
2023-03-30T14:47:19.025Z,62.73
2023-03-30T14:49:48.136Z,62.13
2023-03-30T14:52:19.046Z,63.22
2023-03-30T14:55:02.414Z,63.17
2023-03-30T14:57:38.825Z,62.50
2023-03-30T15:00:21.364Z,62.25
2023-03-30T15:02:53.286Z,62.50
2023-03-30T15:05:24.415Z,62.21
2023-03-30T15:07:54.288Z,64.05
2023-03-30T15:10:27.358Z,62.37
2023-03-30T15:12:58.325Z,64.39
2023-03-30T15:15:32.907Z,64.96
2023-03-30T15:18:03.603Z,63.59
2023-03-30T15:20:33.280Z,64.52
2023-03-30T15:23:01.998Z,63.78
2023-03-30T15:25:33.755Z,64.64
2023-03-30T15:28:04.827Z,64.58
2023-03-30T15:30:36.723Z,62.75
2023-03-30T15:33:07.499Z,64.60
2023-03-30T15:35:37.536Z,62.94
2023-03-30T15:38:15.449Z,62.69
2023-03-30T15:40:45.152Z,64.08
2023-03-30T15:43:19.163Z,62.81
2023-03-30T15:45:52.088Z,62.53
2023-03-30T15:48:26.848Z,62.13
2023-03-30T15:51:00.201Z,62.51
2023-03-30T15:53:40.341Z,62.36
2023-03-30T15:56:14.101Z,63.58
2023-03-30T15:58:43.428Z,63.82
2023-03-30T16:01:15.898Z,63.15
2023-03-30T16:03:52.312Z,63.47
2023-03-30T16:06:21.860Z,62.68
2023-03-30T16:08:50.160Z,61.72
2023-03-30T16:11:20.610Z,62.89
2023-03-30T16:13:50.275Z,62.28
2023-03-30T16:16:19.904Z,62.44
2023-03-30T16:18:48.829Z,64.21
2023-03-30T16:21:18.496Z,62.61
2023-03-30T16:23:46.808Z,62.38
2023-03-30T16:26:15.070Z,61.85
2023-03-30T16:28:43.515Z,62.44
2023-03-30T16:31:18.027Z,61.56
2023-03-30T16:33:47.791Z,64.31
2023-03-30T16:36:18.246Z,62.94
2023-03-30T16:38:47.277Z,62.05
2023-03-30T16:41:19.319Z,62.37
2023-03-30T16:43:47.977Z,62.11
2023-03-30T16:46:17.615Z,61.99
2023-03-30T16:48:47.483Z,63.49
2023-03-30T16:51:16.560Z,62.45
2023-03-30T16:53:44.835Z,63.65
2023-03-30T16:56:17.406Z,63.39
2023-03-30T16:58:46.035Z,62.33
2023-03-30T17:01:18.349Z,63.24
2023-03-30T17:03:48.641Z,62.08
2023-03-30T17:06:17.187Z,63.32
2023-03-30T17:08:45.961Z,63.68
2023-03-30T17:11:14.451Z,62.98
2023-03-30T17:13:43.210Z,62.45
2023-03-30T17:16:13.568Z,62.85
2023-03-30T17:18:42.183Z,62.63
2023-03-30T17:21:16.550Z,62.66
2023-03-30T17:23:47.751Z,63.52
2023-03-30T17:26:16.694Z,62.47
2023-03-30T17:28:45.054Z,62.71
2023-03-30T17:31:17.492Z,62.89
2023-03-30T17:33:46.103Z,62.37
2023-03-30T17:36:19.013Z,62.05
2023-03-30T17:38:47.712Z,62.34
2023-03-30T17:41:17.114Z,62.18
2023-03-30T17:43:45.476Z,62.06
2023-03-30T17:46:15.170Z,61.73
2023-03-30T17:48:43.991Z,61.38
2023-03-30T17:51:12.259Z,61.89
2023-03-30T17:53:41.950Z,61.45
2023-03-30T17:56:13.201Z,61.73
2023-03-30T17:58:41.601Z,60.86
2023-03-30T18:01:12.435Z,61.04
2023-03-30T18:03:41.137Z,61.03
2023-03-30T18:06:12.283Z,60.94
2023-03-30T18:08:43.065Z,61.30
2023-03-30T18:11:11.459Z,60.94
2023-03-30T18:13:39.926Z,60.91
2023-03-30T18:16:08.533Z,61.05
2023-03-30T18:18:37.229Z,60.71
2023-03-30T18:21:06.727Z,60.67
2023-03-30T18:23:35.461Z,60.27
2023-03-30T18:26:10.311Z,60.58
2023-03-30T18:28:42.429Z,60.26
2023-03-30T18:31:11.207Z,60.04
2023-03-30T18:33:40.529Z,60.28
2023-03-30T18:36:12.586Z,60.07
2023-03-30T18:38:42.109Z,59.86
2023-03-30T18:41:13.333Z,59.67
2023-03-30T18:43:41.815Z,59.80
2023-03-30T18:46:13.839Z,59.96
2023-03-30T18:48:42.403Z,59.83
2023-03-30T18:51:12.211Z,59.75
2023-03-30T18:53:40.742Z,59.99
2023-03-30T18:56:13.675Z,59.69
2023-03-30T18:58:43.049Z,60.22
2023-03-30T19:01:13.353Z,59.99
2023-03-30T19:03:42.830Z,60.09
2023-03-30T19:06:14.104Z,59.84
2023-03-30T19:08:43.750Z,59.90
2023-03-30T19:11:15.302Z,60.12
2023-03-30T19:13:43.782Z,60.05
2023-03-30T19:16:11.994Z,59.77
2023-03-30T19:18:40.516Z,59.69
2023-03-30T19:21:13.820Z,60.63
2023-03-30T19:23:42.263Z,59.96
2023-03-30T19:26:11.109Z,60.25
2023-03-30T19:28:41.189Z,60.28
2023-03-30T19:31:13.436Z,60.38
2023-03-30T19:33:42.681Z,60.03
2023-03-30T19:36:11.546Z,60.10
2023-03-30T19:38:40.103Z,60.24
2023-03-30T19:41:08.692Z,60.17
2023-03-30T19:43:37.007Z,60.35
2023-03-30T19:46:08.707Z,60.25
2023-03-30T19:48:37.089Z,60.01
2023-03-30T19:51:05.722Z,60.22
2023-03-30T19:53:34.153Z,60.49
2023-03-30T19:56:02.461Z,60.04
2023-03-30T19:58:30.692Z,59.81
2023-03-30T20:00:58.954Z,60.28
2023-03-30T20:03:30.201Z,60.03
2023-03-30T20:05:58.650Z,59.71
2023-03-30T20:08:26.869Z,59.44
2023-03-30T20:10:57.078Z,58.94
2023-03-30T20:13:27.364Z,59.03
2023-03-30T20:15:56.387Z,58.65
2023-03-30T20:18:24.761Z,58.51
2023-03-30T20:20:54.410Z,58.49
2023-03-30T20:23:22.709Z,58.27
2023-03-30T20:25:52.622Z,58.03
2023-03-30T20:28:21.126Z,58.21
2023-03-30T20:30:49.415Z,58.01
2023-03-30T20:33:18.734Z,57.99
2023-03-30T20:35:47.134Z,57.94
2023-03-30T20:38:16.762Z,57.80
2023-03-30T20:40:54.312Z,57.61
2023-03-30T20:43:25.968Z,57.56
2023-03-30T20:46:02.140Z,57.76
2023-03-30T20:48:33.609Z,57.31
2023-03-30T20:51:03.819Z,57.22
2023-03-30T20:53:35.151Z,57.00
2023-03-30T20:56:05.201Z,56.97
2023-03-30T20:58:33.495Z,56.82
2023-03-30T21:01:01.840Z,56.81
2023-03-30T21:03:30.249Z,56.70
2023-03-30T21:06:03.347Z,56.73
2023-03-30T21:08:34.667Z,56.77
2023-03-30T21:11:03.697Z,56.80
2023-03-30T21:13:32.108Z,56.60
2023-03-30T21:16:01.762Z,56.64
2023-03-30T21:18:30.568Z,56.65
2023-03-30T21:20:59.103Z,56.60
2023-03-30T21:23:27.463Z,56.64
2023-03-30T21:25:59.093Z,56.46
2023-03-30T21:28:28.566Z,56.56
2023-03-30T21:30:58.148Z,56.52
2023-03-30T21:33:27.828Z,56.60
2023-03-30T21:35:57.774Z,56.44
2023-03-30T21:38:27.449Z,56.48
2023-03-30T21:40:58.984Z,56.46
2023-03-30T21:43:30.841Z,56.46
2023-03-30T21:46:00.539Z,56.41
2023-03-30T21:48:31.351Z,56.19
2023-03-30T21:51:00.601Z,56.34
2023-03-30T21:53:30.251Z,56.03
2023-03-30T21:56:00.662Z,56.35
2023-03-30T21:58:29.630Z,56.12
2023-03-30T22:01:10.686Z,56.05
2023-03-30T22:03:40.738Z,56.04
2023-03-30T22:06:12.848Z,55.91
2023-03-30T22:08:41.356Z,55.90
2023-03-30T22:11:14.635Z,56.00
2023-03-30T22:13:42.870Z,55.99
2023-03-30T22:16:13.740Z,55.94
2023-03-30T22:18:42.428Z,56.01
2023-03-30T22:21:14.509Z,55.91
2023-03-30T22:23:42.840Z,55.84
2023-03-30T22:26:12.913Z,55.88
2023-03-30T22:28:42.011Z,55.82
2023-03-30T22:31:11.574Z,55.79
2023-03-30T22:33:39.952Z,55.54
2023-03-30T22:36:17.289Z,55.71
2023-03-30T22:38:45.725Z,56.45
2023-03-30T22:41:15.979Z,56.72
2023-03-30T22:43:44.349Z,57.29
2023-03-30T22:46:12.615Z,56.73
2023-03-30T22:48:42.096Z,55.89
2023-03-30T22:51:14.143Z,55.77
2023-03-30T22:53:42.654Z,56.11
2023-03-30T22:56:11.794Z,56.18
2023-03-30T22:58:41.514Z,55.58
2023-03-30T23:01:10.401Z,55.65
2023-03-30T23:03:39.309Z,55.60
2023-03-30T23:06:09.380Z,55.43
2023-03-30T23:08:39.213Z,55.52
2023-03-30T23:11:08.275Z,55.81
2023-03-30T23:13:38.216Z,55.67
2023-03-30T23:16:09.016Z,55.45
2023-03-30T23:18:37.880Z,55.18
2023-03-30T23:21:07.435Z,55.16
2023-03-30T23:23:36.776Z,54.79
2023-03-30T23:26:08.274Z,54.66
2023-03-30T23:28:38.002Z,54.66
2023-03-30T23:31:12.135Z,54.71
2023-03-30T23:33:41.087Z,54.65
2023-03-30T23:36:13.430Z,54.43
2023-03-30T23:38:42.056Z,54.81
2023-03-30T23:41:13.325Z,54.72
2023-03-30T23:43:41.731Z,54.42
2023-03-30T23:46:11.670Z,54.65
2023-03-30T23:48:40.114Z,54.46
2023-03-30T23:51:08.716Z,54.54
2023-03-30T23:53:40.122Z,54.76
2023-03-30T23:56:13.021Z,54.78
2023-03-30T23:58:42.164Z,54.65
